logo meteotoscana

Diretta Meteo Easton-Newman Fld, Stati Uniti (USA)mercoledì 6 maggio ore 09:45

Mappa
Sereno 20 °C Sereno 24 Ore: T.min 18 T.max 28
Ponente Sud/Sud-Ovest Km/h 29.6 Punto di rugiada: 12 °C Umidità: 59% Visibilità: 10 Km
Il sole sorge alle: 05:59 Il sole tramonta alle: 20:02
6 Maggio 2026 09:45 tempo osservato: Sereno Sereno 20 59 1011 vento: Nord S/SO 29.6
6 Maggio 2026 08:45 tempo osservato: Poco Nuvoloso Poco Nuvoloso 20 59 1011 vento: Nord S 27.8
6 Maggio 2026 07:45 tempo osservato: Nuvoloso Nuvoloso 19 63 1011 vento: Nord S/SO 33.3
6 Maggio 2026 06:45 tempo osservato: Sereno Sereno 18 67 1011 vento: Nord S 29.6
6 Maggio 2026 05:56 tempo osservato: Nuvoloso Nuvoloso 18 72 1011 vento: Nord S 24
6 Maggio 2026 05:55 tempo osservato: Nuvoloso Nuvoloso 18 72 1011 vento: Nord S 24
6 Maggio 2026 05:35 tempo osservato: Sereno Sereno 18 72 1011 vento: Nord S 24
6 Maggio 2026 05:15 tempo osservato: Sereno Sereno 18 72 1010 vento: Nord S 25.9
6 Maggio 2026 04:55 tempo osservato: Sereno Sereno 18 72 1011 vento: Nord S 20.3
6 Maggio 2026 04:35 tempo osservato: Sereno Sereno 18 72 1010 vento: Nord S 22.2
6 Maggio 2026 04:15 tempo osservato: Sereno Sereno 18 72 1011 vento: Nord S 22.2
6 Maggio 2026 03:55 tempo osservato: Sereno Sereno 19 68 1011 vento: Nord S 27.8
6 Maggio 2026 03:35 tempo osservato: Sereno Sereno 19 68 1011 vento: Nord S 25.9
6 Maggio 2026 03:15 tempo osservato: Sereno Sereno 19 68 1011 vento: Nord S 27.8
6 Maggio 2026 02:55 tempo osservato: Sereno Sereno 19 72 1011 vento: Nord S 27.8
6 Maggio 2026 02:35 tempo osservato: Sereno Sereno 19 68 1011 vento: Nord S 29.6
6 Maggio 2026 02:15 tempo osservato: Sereno Sereno 20 68 1011 vento: Nord S 31.5
6 Maggio 2026 01:55 tempo osservato: Sereno Sereno 20 68 1011 vento: Nord S/SO 33.3
6 Maggio 2026 01:35 tempo osservato: Sereno Sereno 20 68 1011 vento: Nord S 29.6
6 Maggio 2026 01:15 tempo osservato: Sereno Sereno 20 68 1011 vento: Nord S 25.9
6 Maggio 2026 00:55 tempo osservato: Poco Nuvoloso Poco Nuvoloso 21 64 1011 vento: Nord S 24
6 Maggio 2026 00:35 tempo osservato: Sereno Sereno 21 64 1011 vento: Nord S 31.5
6 Maggio 2026 00:15 tempo osservato: Sereno Sereno 21 64 1011 vento: Nord S 25.9
5 Maggio 2026 23:55 tempo osservato: Sereno Sereno 20 68 1011 vento: Nord S 24
5 Maggio 2026 23:35 tempo osservato: Sereno Sereno 20 68 1011 vento: Nord S 22.2
5 Maggio 2026 23:15 tempo osservato: Sereno Sereno 20 68 1011 vento: Nord S 20.3
5 Maggio 2026 22:55 tempo osservato: Nuvoloso Nuvoloso 20 68 1011 vento: Nord S 20.3
5 Maggio 2026 22:35 tempo osservato: Poco Nuvoloso Poco Nuvoloso 20 64 1011 vento: Nord S 16.7
5 Maggio 2026 22:15 tempo osservato: Sereno Sereno 21 60 1011 vento: Nord S 22.2
5 Maggio 2026 21:45 tempo osservato: Sereno Sereno 21 56 1011 vento: Nord S 24
5 Maggio 2026 20:45 tempo osservato: Sereno Sereno 21 56 1010 vento: Nord S 22.2
5 Maggio 2026 19:45 tempo osservato: Sereno Sereno 23 49 1010 vento: Nord S 22.2
5 Maggio 2026 18:45 tempo osservato: Sereno Sereno 25 41 1010 vento: Nord S 24
5 Maggio 2026 17:45 tempo osservato: Sereno Sereno 27 34 1010 vento: Nord S 33.3
5 Maggio 2026 16:45 tempo osservato: Sereno Sereno 28 32 1010 vento: Nord S/SO 33.3
5 Maggio 2026 15:45 tempo osservato: Sereno Sereno 28 34 1010 vento: Nord S 33.3
5 Maggio 2026 14:50 tempo osservato: Sereno Sereno 28 32 1011 vento: Nord S 27.8
5 Maggio 2026 13:45 tempo osservato: Sereno Sereno 28 30 1011 vento: Nord S 33.3
5 Maggio 2026 12:55 tempo osservato: Sereno Sereno 26 36 1012 vento: Nord SO 20.3
5 Maggio 2026 11:45 tempo osservato: Sereno Sereno 25 41 1013 vento: Nord SO 20.3
5 Maggio 2026 10:45 tempo osservato: Sereno Sereno 23 43 1013 vento: Nord S 24